Terminal Aerodrome Forecast
Issued by NWS Cleveland, OH

Home | Current Version | Previous Version | Text Only | Print | Product List | Glossary On
Versions: 1 2 3 4 5 6 7 8 9 10 11 12 13 14 15 16 17 18 19 20 21
000
FTUS41 KCLE 152300 RRA
TAFTOL
TAF
KTOL 152343Z 1600/1624 26004KT 6SM -SHRA SCT030 OVC045
      TEMPO 1600/1603 29004KT 5SM RA BR BKN028 OVC040
     FM160300 29004KT P6SM VCSH BKN025
     FM160600 34004KT 5SM BR BKN025
     FM160900 34003KT 4SM BR BKN008
     FM161400 32004KT P6SM BKN016
     FM162000 30004KT P6SM SCT030=

USA.gov is the U.S. government's official web portal to all federal, state and local government web resources and services.